Time;durP1;ratioP1;P1;durP2;ratioP2;P2;SDS_P1;SDS_P2;PMS_P1;PMS_P2;Temp;Humidity;BMP_temperature;BMP_pressure;BME280_temperature;BME280_humidity;BME280_pressure;Samples;Min_cycle;Max_cycle;Signal;HPM_P1;HPM_P2
2024/04/09 00:01:17;;;;;;;20.30;4.85;;;;;;;16.05;72.63;64757.19;5406343;26;20443;-75
2024/04/09 00:03:43;;;;;;;21.60;5.32;;;;;;;15.98;73.40;64718.19;5383570;26;20045;-75
2024/04/09 00:06:15;;;;;;;19.98;5.30;;;;;;;15.98;72.95;64760.41;5379272;26;20359;-75
2024/04/09 00:08:44;;;;;;;19.88;5.20;;;;;;;15.97;73.52;64706.50;5370010;26;20036;-75
2024/04/09 00:11:22;;;;;;;23.58;5.50;;;;;;;15.96;72.96;64760.22;5372860;26;20012;-74
2024/04/09 00:13:53;;;;;;;17.23;4.43;;;;;;;16.02;73.21;64733.28;5352205;26;20536;-75
2024/04/09 00:16:24;;;;;;;21.75;4.53;;;;;;;15.98;72.39;64778.31;5393324;26;20015;-74
2024/04/09 00:18:53;;;;;;;25.77;5.60;;;;;;;16.02;73.03;64751.72;5381511;26;20446;-75
2024/04/09 00:21:20;;;;;;;21.83;5.28;;;;;;;16.02;72.17;64748.53;5339598;26;20001;-76
2024/04/09 00:23:47;;;;;;;24.45;6.10;;;;;;;16.07;71.92;64744.19;5400030;26;20015;-75
2024/04/09 00:26:13;;;;;;;21.88;5.93;;;;;;;16.07;71.58;64770.56;5387444;26;19997;-75
2024/04/09 00:28:40;;;;;;;20.55;5.55;;;;;;;16.06;71.81;64758.31;5379841;26;20078;-74
2024/04/09 00:31:06;;;;;;;30.23;11.93;;;;;;;16.04;72.59;64779.81;5361866;26;20000;-75
2024/04/09 00:33:33;;;;;;;34.45;15.65;;;;;;;16.05;71.99;64759.81;5379120;26;20074;-74
2024/04/09 00:35:59;;;;;;;43.60;18.52;;;;;;;16.02;72.56;64730.63;5382028;26;19992;-75
2024/04/09 00:38:27;;;;;;;20.08;6.05;;;;;;;15.99;72.72;64764.16;5384166;26;20449;-75
2024/04/09 00:40:53;;;;;;;19.33;5.05;;;;;;;15.97;72.95;64750.81;5382825;26;20000;-75
2024/04/09 00:43:20;;;;;;;19.88;5.03;;;;;;;15.97;72.54;64735.53;5385732;26;20006;-74
2024/04/09 00:45:47;;;;;;;22.23;5.47;;;;;;;15.96;73.16;64723.84;5383659;26;20024;-75
2024/04/09 00:48:16;;;;;;;22.58;5.22;;;;;;;16.01;72.43;64710.47;5380396;26;20020;-74
2024/04/09 00:50:42;;;;;;;23.20;5.22;;;;;;;16.00;72.39;64744.19;5384103;26;20011;-75
2024/04/09 00:53:11;;;;;;;19.25;4.65;;;;;;;16.05;72.47;64741.34;5370476;26;20016;-75
2024/04/09 00:55:45;;;;;;;20.70;5.05;;;;;;;16.05;72.57;64744.56;5366496;26;20032;-75
2024/04/09 00:58:12;;;;;;;22.02;5.47;;;;;;;15.91;73.12;64739.88;5387446;26;20011;-75
2024/04/09 01:00:41;;;;;;;23.05;5.38;;;;;;;15.84;73.55;64758.34;5367499;26;20001;-75
2024/04/09 01:03:09;;;;;;;20.98;4.85;;;;;;;15.82;73.84;64721.25;5375884;26;20021;-76
2024/04/09 01:05:36;;;;;;;22.02;4.85;;;;;;;15.81;73.68;64712.19;5389766;26;20004;-75
2024/04/09 01:08:03;;;;;;;20.05;4.63;;;;;;;15.78;73.85;64725.22;5394164;26;20012;-75
2024/04/09 01:10:29;;;;;;;20.17;4.80;;;;;;;15.78;74.16;64706.19;5376162;26;20005;-75
2024/04/09 01:12:56;;;;;;;22.00;4.75;;;;;;;15.69;74.58;64689.22;5383016;26;20028;-74
2024/04/09 01:15:22;;;;;;;21.27;4.88;;;;;;;15.69;74.09;64728.75;5355477;26;20023;-76
2024/04/09 01:17:48;;;;;;;19.00;4.55;;;;;;;15.67;74.05;64700.13;5380686;26;20517;-74
2024/04/09 01:20:16;;;;;;;20.20;5.00;;;;;;;15.67;73.82;64676.41;5374643;26;20001;-75
2024/04/09 01:22:42;;;;;;;20.73;5.00;;;;;;;15.65;74.30;64670.97;5397488;26;20014;-74
2024/04/09 01:25:10;;;;;;;18.10;5.05;;;;;;;15.61;74.76;64669.66;5388358;26;20013;-75
2024/04/09 01:27:38;;;;;;;21.17;5.18;;;;;;;15.64;74.90;64677.75;5388159;26;20428;-75
2024/04/09 01:30:08;;;;;;;20.30;5.00;;;;;;;15.64;75.12;64719.94;5376726;26;20069;-75
2024/04/09 01:32:36;;;;;;;18.02;4.78;;;;;;;15.62;75.45;64680.78;5392988;26;20000;-74
2024/04/09 01:35:06;;;;;;;20.85;4.68;;;;;;;15.62;75.02;64686.59;5380626;26;20307;-75
2024/04/09 01:37:33;;;;;;;22.92;5.30;;;;;;;15.60;75.10;64705.44;5387726;26;20020;-76
2024/04/09 01:39:59;;;;;;;19.40;5.30;;;;;;;15.59;76.17;64693.75;5374113;26;20004;-74
2024/04/09 01:42:25;;;;;;;20.88;4.75;;;;;;;15.56;75.97;64684.53;5397666;26;20050;-75
2024/04/09 01:44:51;;;;;;;24.60;5.60;;;;;;;15.46;76.39;64673.81;5372007;26;20022;-75
2024/04/09 01:47:17;;;;;;;21.90;5.05;;;;;;;15.52;75.84;64722.78;5382348;26;20016;-77
2024/04/09 01:49:43;;;;;;;18.83;4.85;;;;;;;15.56;75.92;64682.47;5356258;26;19996;-75
2024/04/09 01:52:11;;;;;;;19.52;4.95;;;;;;;15.54;75.64;64711.84;5387430;26;20015;-76
2024/04/09 01:54:37;;;;;;;21.42;5.47;;;;;;;15.49;76.62;64683.03;5374891;26;20000;-76
2024/04/09 01:57:03;;;;;;;22.50;5.15;;;;;;;15.48;76.71;64708.28;5393323;26;20070;-76
2024/04/09 01:59:32;;;;;;;21.30;5.30;;;;;;;15.48;76.11;64674.00;5368826;26;20018;-76
2024/04/09 02:01:58;;;;;;;21.90;6.20;;;;;;;15.47;76.66;64688.69;5396348;26;20490;-75
2024/04/09 02:04:27;;;;;;;18.65;4.80;;;;;;;15.51;76.48;64690.56;5376376;26;20011;-75
2024/04/09 02:06:53;;;;;;;20.02;5.18;;;;;;;15.48;76.76;64692.47;5357432;26;20012;-75
2024/04/09 02:09:21;;;;;;;18.15;5.05;;;;;;;15.48;77.20;64697.16;5366327;26;20009;-75
2024/04/09 02:11:48;;;;;;;18.88;5.30;;;;;;;15.48;76.99;64674.00;5364249;26;20467;-76
2024/04/09 02:14:14;;;;;;;16.92;4.90;;;;;;;15.49;76.89;64666.66;5377915;26;20007;-75
2024/04/09 02:16:40;;;;;;;23.45;6.05;;;;;;;15.49;77.05;64701.47;5374185;26;20000;-76
2024/04/09 02:19:08;;;;;;;18.65;5.07;;;;;;;15.48;77.58;64678.72;5367281;26;20404;-76
2024/04/09 02:21:35;;;;;;;22.60;5.07;;;;;;;15.48;77.41;64681.34;5389969;26;20006;-76
2024/04/09 02:24:01;;;;;;;21.35;5.30;;;;;;;15.51;76.81;64690.56;5378807;26;20331;-75
2024/04/09 02:26:29;;;;;;;17.10;5.28;;;;;;;15.56;76.95;64711.47;5378191;26;20447;-75
2024/04/09 02:28:55;;;;;;;18.20;6.30;;;;;;;15.57;77.30;64696.78;5377566;26;20005;-75
2024/04/09 02:31:21;;;;;;;19.75;5.70;;;;;;;15.63;77.03;64689.78;5373240;26;20004;-76
2024/04/09 02:33:48;;;;;;;19.52;5.22;;;;;;;15.60;77.32;64729.16;5362552;26;20471;-76
2024/04/09 02:36:14;;;;;;;20.02;5.50;;;;;;;15.64;77.33;64690.94;5358136;26;20000;-77
2024/04/09 02:38:41;;;;;;;18.05;5.72;;;;;;;15.63;77.23;64713.53;5379405;26;19996;-76
2024/04/09 02:41:08;;;;;;;21.58;6.20;;;;;;;15.63;77.62;64705.63;5368843;26;20056;-75
2024/04/09 02:43:35;;;;;;;22.63;5.22;;;;;;;15.63;77.76;64685.09;5361974;26;20008;-75
2024/04/09 02:46:01;;;;;;;21.73;5.95;;;;;;;15.59;77.80;64687.91;5370301;26;20008;-75
2024/04/09 02:48:30;;;;;;;18.20;5.05;;;;;;;15.65;76.96;64713.16;5391942;26;19999;-76
2024/04/09 02:50:58;;;;;;;20.52;5.18;;;;;;;15.64;77.13;64714.66;5367515;26;20015;-76
2024/04/09 02:53:24;;;;;;;21.58;5.22;;;;;;;15.57;77.41;64667.22;5360127;26;20012;-76
2024/04/09 02:56:04;;;;;;;17.45;4.93;;;;;;;15.52;78.05;64712.22;5358647;26;20083;-76
2024/04/09 02:58:31;;;;;;;21.60;5.78;;;;;;;15.51;77.95;64666.28;5373764;26;20367;-76
2024/04/09 03:01:04;;;;;;;19.58;5.20;;;;;;;15.43;78.72;64694.72;5362959;26;20015;-75
2024/04/09 03:03:31;;;;;;;21.60;5.70;;;;;;;15.37;78.77;64706.41;5371785;26;20410;-75
2024/04/09 03:05:57;;;;;;;24.55;5.93;;;;;;;15.33;79.95;64646.53;5375949;26;20578;-77
2024/04/09 03:08:23;;;;;;;15.98;5.10;;;;;;;15.94;78.39;64750.63;5393661;26;20347;-75
2024/04/09 03:10:50;;;;;;;22.85;5.50;;;;;;;15.13;81.28;64616.66;5365988;26;20001;-75
2024/04/09 03:13:16;;;;;;;22.65;5.82;;;;;;;15.10;81.58;64615.91;5377475;26;20327;-75
2024/04/09 03:15:43;;;;;;;21.65;6.28;;;;;;;15.15;80.73;64634.72;5381842;26;20074;-75
2024/04/09 03:18:09;;;;;;;21.65;5.82;;;;;;;15.18;81.45;64640.75;5396343;26;20012;-75
2024/04/09 03:20:35;;;;;;;23.88;7.25;;;;;;;15.18;81.13;64637.53;5392029;26;19995;-75
2024/04/09 03:23:01;;;;;;;19.08;5.85;;;;;;;15.19;80.98;64643.94;5371666;26;20366;-75
2024/04/09 03:25:27;;;;;;;18.65;5.68;;;;;;;15.05;82.26;64624.00;5383231;26;20032;-76
2024/04/09 03:27:53;;;;;;;20.65;5.63;;;;;;;14.87;84.36;64606.91;5390810;26;20835;-75
2024/04/09 03:30:19;;;;;;;18.30;5.45;;;;;;;14.84;83.91;64642.44;5367785;26;20000;-75
2024/04/09 03:32:45;;;;;;;20.55;5.60;;;;;;;14.82;84.00;64640.19;5367918;26;20001;-75
2024/04/09 03:35:11;;;;;;;19.60;5.97;;;;;;;14.85;83.67;64583.56;5379037;26;20007;-75
2024/04/09 03:37:37;;;;;;;22.00;6.10;;;;;;;14.73;84.55;64583.22;5394984;26;20018;-75
2024/04/09 03:40:05;;;;;;;18.38;5.40;;;;;;;14.59;85.74;64562.75;5377955;26;20086;-75
2024/04/09 03:42:31;;;;;;;19.80;5.53;;;;;;;14.49;86.24;64535.66;5374171;26;20010;-75
2024/04/09 03:44:57;;;;;;;20.35;5.50;;;;;;;14.41;87.14;64527.22;5379141;26;19999;-76
2024/04/09 03:47:23;;;;;;;24.38;6.88;;;;;;;14.39;87.11;64521.78;5379420;26;20036;-75
2024/04/09 03:49:49;;;;;;;20.85;6.18;;;;;;;14.42;86.61;64530.97;5381076;26;20004;-75
2024/04/09 03:52:15;;;;;;;21.60;6.07;;;;;;;14.44;86.60;64572.69;5380808;26;20000;-75
2024/04/09 03:54:41;;;;;;;20.00;6.57;;;;;;;14.49;86.38;64556.72;5374505;26;19996;-74
2024/04/09 03:57:07;;;;;;;19.95;6.07;;;;;;;14.49;86.35;64580.97;5390534;26;20003;-75
2024/04/09 03:59:36;;;;;;;20.98;5.78;;;;;;;14.46;86.65;64517.06;5392583;26;20447;-77
2024/04/09 04:02:03;;;;;;;18.45;5.68;;;;;;;14.45;86.83;64534.34;5362207;26;20000;-76
2024/04/09 04:04:29;;;;;;;19.33;6.13;;;;;;;14.47;86.96;64557.09;5376131;26;20398;-75
2024/04/09 04:06:55;;;;;;;19.38;6.13;;;;;;;14.50;86.97;64547.31;5376993;26;19996;-75
2024/04/09 04:09:23;;;;;;;23.92;6.43;;;;;;;14.52;86.50;64608.03;5386864;26;20460;-75
2024/04/09 04:11:50;;;;;;;20.48;6.35;;;;;;;14.56;87.18;64564.63;5372317;26;20000;-75
2024/04/09 04:14:16;;;;;;;20.92;6.70;;;;;;;14.48;88.10;64547.69;5365458;26;20050;-75
2024/04/09 04:16:42;;;;;;;19.83;5.80;;;;;;;14.44;87.73;64554.28;5375951;26;20015;-76
2024/04/09 04:19:08;;;;;;;20.70;5.90;;;;;;;14.63;86.89;64593.56;5384801;26;20476;-76
2024/04/09 04:21:35;;;;;;;23.25;6.90;;;;;;;14.53;86.37;64545.44;5383154;26;20701;-75
2024/04/09 04:24:01;;;;;;;19.17;6.00;;;;;;;14.57;86.02;64591.50;5376509;26;20007;-75
2024/04/09 04:26:27;;;;;;;18.27;5.70;;;;;;;14.62;85.83;64570.81;5375175;26;20004;-75
2024/04/09 04:28:55;;;;;;;21.88;6.75;;;;;;;14.67;85.31;64581.72;5374717;26;20012;-75
2024/04/09 04:31:25;;;;;;;20.63;6.00;;;;;;;14.66;85.87;64581.16;5378241;26;20008;-75
2024/04/09 04:33:51;;;;;;;24.60;6.60;;;;;;;14.67;85.60;64558.59;5376304;26;20006;-75
2024/04/09 04:36:18;;;;;;;19.83;6.05;;;;;;;14.71;85.00;64576.25;5373832;26;20015;-75
2024/04/09 04:38:46;;;;;;;21.27;6.20;;;;;;;14.75;84.94;64590.19;5367636;26;19997;-75
2024/04/09 04:41:12;;;;;;;20.98;7.03;;;;;;;14.77;84.71;64608.78;5383483;26;20027;-75
2024/04/09 04:43:39;;;;;;;18.52;6.10;;;;;;;14.80;84.86;64614.25;5376261;26;20016;-75
2024/04/09 04:46:05;;;;;;;19.73;6.00;;;;;;;14.79;84.59;64603.16;5371627;26;20608;-75
2024/04/09 04:48:31;;;;;;;19.42;6.18;;;;;;;14.81;85.04;64620.63;5361804;26;20067;-75
2024/04/09 04:50:57;;;;;;;20.20;6.10;;;;;;;14.79;85.40;64568.34;5380435;26;20044;-74
2024/04/09 04:53:24;;;;;;;22.08;6.50;;;;;;;14.81;86.17;64602.22;5378561;26;20004;-76
2024/04/09 04:55:51;;;;;;;23.25;7.47;;;;;;;14.75;86.69;64569.13;5372884;26;20032;-76
2024/04/09 04:58:19;;;;;;;26.40;8.25;;;;;;;14.70;87.24;64611.41;5357313;26;20079;-76
2024/04/09 05:00:45;;;;;;;22.17;7.30;;;;;;;14.73;87.12;64599.00;5371903;26;20001;-75
2024/04/09 05:03:11;;;;;;;21.92;6.78;;;;;;;14.73;87.26;64593.75;5364564;26;20014;-75
2024/04/09 05:05:37;;;;;;;22.55;6.85;;;;;;;14.75;86.80;64622.34;5372467;26;20000;-75
2024/04/09 05:08:04;;;;;;;19.20;6.60;;;;;;;14.75;87.00;64601.28;5388493;26;20010;-75
2024/04/09 05:10:30;;;;;;;20.70;5.35;;;;;;;14.75;86.27;64574.94;5402781;26;20069;-75
2024/04/09 05:12:56;;;;;;;20.17;6.38;;;;;;;14.75;85.99;64582.84;5406607;26;20087;-75
2024/04/09 05:15:23;;;;;;;21.92;7.00;;;;;;;14.71;85.96;64610.47;5395287;26;20008;-75
2024/04/09 05:17:50;;;;;;;21.33;6.32;;;;;;;14.72;85.75;64589.97;5397925;26;20004;-75
2024/04/09 05:20:16;;;;;;;22.50;6.28;;;;;;;14.62;87.33;64563.50;5378423;26;20008;-75
2024/04/09 05:22:44;;;;;;;26.15;6.60;;;;;;;14.52;88.64;64567.97;5376530;26;19995;-75
2024/04/09 05:25:11;;;;;;;20.27;6.25;;;;;;;14.44;89.18;64527.38;5366131;26;20001;-74
2024/04/09 05:27:38;;;;;;;22.48;6.32;;;;;;;14.36;89.94;64557.84;5387907;26;20012;-74
2024/04/09 05:30:05;;;;;;;22.25;6.05;;;;;;;14.41;89.50;64574.00;5379022;26;20028;-75
2024/04/09 05:32:35;;;;;;;21.67;6.60;;;;;;;14.43;89.18;64566.31;5382664;26;20010;-75
2024/04/09 05:35:02;;;;;;;22.60;6.28;;;;;;;14.49;88.82;64591.47;5360855;21;20008;-71
2024/04/09 05:37:29;;;;;;;19.33;6.20;;;;;;;14.52;88.87;64573.81;5330315;26;20043;-73
2024/04/09 05:39:57;;;;;;;21.17;6.13;;;;;;;14.63;88.09;64577.78;5343330;26;20000;-73
2024/04/09 05:42:23;;;;;;;21.80;6.20;;;;;;;14.66;87.90;64591.69;5327217;26;20001;-73
2024/04/09 05:44:49;;;;;;;18.10;6.10;;;;;;;14.56;89.05;64561.41;5293114;26;19994;-74
2024/04/09 05:47:17;;;;;;;18.20;6.28;;;;;;;14.46;90.98;64537.53;5291982;26;20003;-73
2024/04/09 05:49:44;;;;;;;20.58;7.10;;;;;;;14.44;91.24;64517.44;5262781;26;20322;-73
2024/04/09 05:52:11;;;;;;;22.13;6.55;;;;;;;14.49;89.59;64575.13;5270058;27;19998;-73
2024/04/09 05:54:43;;;;;;;21.45;6.78;;;;;;;14.56;90.37;64588.31;5296825;26;20003;-73
2024/04/09 05:57:12;;;;;;;22.27;6.55;;;;;;;14.51;91.31;64567.41;5266125;26;20364;-73
2024/04/09 05:59:38;;;;;;;20.23;6.82;;;;;;;14.56;92.39;64548.25;5237045;27;20012;-71
2024/04/09 06:02:04;;;;;;;21.30;6.60;;;;;;;14.65;92.06;64553.16;5294612;26;20006;-73
2024/04/09 06:04:31;;;;;;;20.08;6.85;;;;;;;14.80;92.03;64616.88;5304312;26;20721;-73
2024/04/09 06:06:57;;;;;;;20.15;5.95;;;;;;;15.79;88.84;64752.69;5260476;26;20002;-73
2024/04/09 06:09:23;;;;;;;21.88;6.85;;;;;;;15.35;88.50;64643.53;5290465;26;19999;-73
2024/04/09 06:11:49;;;;;;;24.05;6.45;;;;;;;15.51;86.77;64693.19;5247903;27;19998;-73
2024/04/09 06:14:16;;;;;;;23.00;6.57;;;;;;;15.47;86.73;64686.03;5271845;27;20002;-73
2024/04/09 06:16:42;;;;;;;22.15;6.80;;;;;;;15.55;86.35;64681.34;5297944;26;20070;-73
2024/04/09 06:19:08;;;;;;;19.02;6.70;;;;;;;15.55;87.06;64686.59;5299032;26;20075;-73
2024/04/09 06:21:34;;;;;;;20.42;7.60;;;;;;;15.94;86.63;64752.69;5259983;27;20085;-73
2024/04/09 06:24:00;;;;;;;22.92;7.43;;;;;;;15.86;86.70;64752.13;5275943;27;20429;-72
2024/04/09 06:26:26;;;;;;;23.17;6.72;;;;;;;15.84;87.73;64766.28;5247881;27;20004;-73
2024/04/09 06:28:54;;;;;;;23.15;6.70;;;;;;;15.82;87.44;64760.81;5257731;26;20010;-73
2024/04/09 06:31:20;;;;;;;21.95;7.00;;;;;;;15.97;87.07;64735.53;5310833;26;20001;-73
2024/04/09 06:33:50;;;;;;;20.58;6.80;;;;;;;16.44;84.58;64811.22;5296520;26;20024;-73
2024/04/09 06:36:16;;;;;;;23.35;7.03;;;;;;;16.28;82.72;64804.28;5319183;26;20009;-73
2024/04/09 06:38:43;;;;;;;25.00;6.68;;;;;;;16.50;83.15;64820.09;5337312;26;20009;-73
2024/04/09 06:41:09;;;;;;;24.52;6.63;;;;;;;16.48;82.95;64841.59;5326130;26;20008;-77
2024/04/09 06:43:37;;;;;;;20.92;6.70;;;;;;;16.57;82.12;64859.66;5310468;26;20334;-73
2024/04/09 06:46:04;;;;;;;21.02;6.63;;;;;;;16.67;81.57;64830.78;5330337;26;20004;-74
2024/04/09 06:48:30;;;;;;;20.48;6.30;;;;;;;16.76;81.63;64851.53;5295952;26;19997;-73
2024/04/09 06:50:56;;;;;;;23.90;6.68;;;;;;;16.86;81.02;64896.63;5306757;27;20020;-73
2024/04/09 06:53:22;;;;;;;24.63;7.57;;;;;;;17.35;79.27;64921.25;5304675;26;20100;-73
2024/04/09 06:55:49;;;;;;;21.48;7.00;;;;;;;17.05;80.64;64912.25;5331455;26;20025;-74
2024/04/09 06:58:15;;;;;;;20.45;7.20;;;;;;;17.29;81.49;64936.78;5307661;26;20489;-73
2024/04/09 07:00:41;;;;;;;23.15;7.10;;;;;;;17.46;80.23;64939.00;5312481;26;20002;-71
2024/04/09 07:03:07;;;;;;;19.63;6.80;;;;;;;17.46;80.38;64942.19;5265696;26;20045;-71
2024/04/09 07:05:33;;;;;;;26.60;9.95;;;;;;;17.29;81.40;64920.91;5322169;26;20016;-71
2024/04/09 07:08:00;;;;;;;20.25;7.13;;;;;;;17.80;79.60;65021.88;5289460;26;20037;-71
2024/04/09 07:10:27;;;;;;;22.60;7.55;;;;;;;17.74;81.04;65001.28;5283761;27;20045;-70
2024/04/09 07:12:54;;;;;;;23.13;7.90;;;;;;;18.10;80.22;65038.84;5324030;26;20452;-71
2024/04/09 07:15:26;;;;;;;26.77;9.25;;;;;;;18.29;78.17;65044.47;5313629;26;20012;-71
2024/04/09 07:17:53;;;;;;;;;;;;;;;18.22;78.49;65044.50;5290849;26;20002;-71
2024/04/09 07:20:19;;;;;;;27.40;9.57;;;;;;;18.37;78.56;65055.03;5309325;26;20257;-71
2024/04/09 07:22:45;;;;;;;25.10;9.30;;;;;;;18.56;78.75;65084.50;5292363;26;20142;-70
2024/04/09 07:25:12;;;;;;;27.10;9.90;;;;;;;18.77;77.81;65115.09;5319599;26;20009;-71
2024/04/09 07:27:39;;;;;;;27.35;9.35;;;;;;;18.61;78.54;65082.22;5310147;26;20436;-70
2024/04/09 07:30:07;;;;;;;28.15;9.07;;;;;;;18.91;77.91;65159.56;5327983;26;20079;-71
2024/04/09 07:32:33;;;;;;;26.75;9.27;;;;;;;19.26;77.14;65231.06;5303072;26;20002;-70
2024/04/09 07:34:59;;;;;;;31.17;9.75;;;;;;;19.42;76.53;65248.66;5290583;26;20021;-70
2024/04/09 07:37:25;;;;;;;28.33;9.70;;;;;;;19.60;75.88;65246.72;5293816;27;20512;-71
2024/04/09 07:39:52;;;;;;;23.95;9.25;;;;;;;19.93;75.97;65283.59;5339466;26;20015;-70
2024/04/09 07:42:18;;;;;;;26.00;8.90;;;;;;;20.42;72.93;65362.00;5323325;26;20012;-71
2024/04/09 07:44:44;;;;;;;26.63;9.63;;;;;;;20.55;73.33;65405.44;5275542;27;19997;-70
2024/04/09 07:47:10;;;;;;;25.42;9.80;;;;;;;20.90;72.28;65464.78;5324561;26;20019;-70
2024/04/09 07:49:37;;;;;;;29.60;9.45;;;;;;;20.94;70.17;65467.25;5305960;26;20066;-70
2024/04/09 07:52:04;;;;;;;26.00;9.18;;;;;;;21.33;69.42;65525.84;5330784;26;20021;-70
2024/04/09 07:54:30;;;;;;;30.52;10.60;;;;;;;21.20;70.42;65503.66;5303434;26;20001;-71
2024/04/09 07:56:56;;;;;;;26.08;10.18;;;;;;;21.57;69.08;65584.56;5342824;26;20001;-71
2024/04/09 07:59:23;;;;;;;25.60;8.80;;;;;;;21.72;68.66;65561.66;5317980;26;20064;-71
2024/04/09 08:01:52;;;;;;;23.48;7.80;;;;;;;21.64;69.02;65593.06;5308301;26;20422;-71
2024/04/09 08:04:19;;;;;;;22.95;7.55;;;;;;;22.11;67.64;65654.97;5271584;27;20002;-71
2024/04/09 08:06:45;;;;;;;25.02;8.40;;;;;;;22.02;69.17;65632.56;5275060;27;20012;-71
2024/04/09 08:09:11;;;;;;;21.40;7.75;;;;;;;22.34;68.52;65662.53;5312604;26;20015;-71
2024/04/09 08:11:42;;;;;;;21.40;7.45;;;;;;;22.22;70.84;65656.84;5293105;26;20035;-71
2024/04/09 08:14:09;;;;;;;22.73;7.80;;;;;;;21.91;73.08;65620.00;5307408;26;20075;-71
2024/04/09 08:16:35;;;;;;;19.92;7.40;;;;;;;22.40;69.66;65692.78;5290344;26;20371;-71
2024/04/09 08:19:03;;;;;;;20.63;7.30;;;;;;;22.18;70.01;65655.53;5295080;26;20013;-71
2024/04/09 08:21:29;;;;;;;19.65;6.78;;;;;;;22.43;67.44;65675.44;5285364;26;20001;-71
2024/04/09 08:23:55;;;;;;;22.13;6.70;;;;;;;22.56;70.05;65719.03;5294293;26;20002;-71
2024/04/09 08:26:23;;;;;;;22.52;6.80;;;;;;;22.79;66.34;65766.00;5289000;26;20449;-70
2024/04/09 08:28:52;;;;;;;21.05;7.32;;;;;;;22.92;67.71;65755.66;5293051;26;20393;-71
2024/04/09 08:31:28;;;;;;;19.00;6.57;;;;;;;22.52;67.14;65687.81;5297686;26;19997;-71
2024/04/09 08:33:55;;;;;;;20.73;6.47;;;;;;;22.97;67.66;65804.63;5300906;26;20007;-71
2024/04/09 08:36:22;;;;;;;18.88;7.45;;;;;;;22.55;67.41;65725.88;5279103;26;20052;-71
2024/04/09 08:38:50;;;;;;;20.40;7.00;;;;;;;22.45;71.02;65722.47;5314691;26;20009;-71
2024/04/09 08:41:16;;;;;;;22.02;7.45;;;;;;;22.03;73.19;65655.00;5292266;26;20076;-71
2024/04/09 08:43:43;;;;;;;22.77;7.07;;;;;;;22.10;72.22;65678.38;5302444;26;20360;-70
2024/04/09 08:46:10;;;;;;;21.65;7.35;;;;;;;22.27;70.57;65717.97;5323348;26;20099;-71
2024/04/09 08:48:40;;;;;;;23.10;7.30;;;;;;;22.28;69.72;65690.34;5307710;26;20020;-71
2024/04/09 08:51:07;;;;;;;22.55;7.22;;;;;;;21.98;71.14;65670.03;5305568;26;19993;-71
2024/04/09 08:53:35;;;;;;;21.42;6.97;;;;;;;22.19;71.18;65688.06;5316236;26;20009;-71
2024/04/09 08:56:01;;;;;;;20.20;7.43;;;;;;;22.07;73.54;65658.41;5286849;26;19997;-70
2024/04/09 08:58:27;;;;;;;24.73;8.48;;;;;;;22.49;71.73;65727.03;5304974;26;19997;-71
2024/04/09 09:00:53;;;;;;;21.75;7.60;;;;;;;22.44;70.85;65721.31;5329058;26;20770;-71
2024/04/09 09:03:19;;;;;;;21.70;7.15;;;;;;;22.52;71.56;65727.22;5295094;26;20005;-70
2024/04/09 09:06:00;;;;;;;23.13;7.03;;;;;;;22.76;67.92;65775.91;5309798;26;20093;-70
2024/04/09 09:08:26;;;;;;;19.55;6.93;;;;;;;23.00;67.86;65797.38;5316603;26;20008;-71
2024/04/09 09:10:55;;;;;;;24.35;7.18;;;;;;;23.02;67.57;65839.72;5294792;27;20009;-70
2024/04/09 09:13:22;;;;;;;21.92;7.03;;;;;;;23.10;65.76;65780.97;5270401;27;20009;-70
2024/04/09 09:15:58;;;;;;;26.00;7.18;;;;;;;23.27;64.98;65858.53;5339977;26;20000;-70
2024/04/09 09:18:24;;;;;;;18.35;6.60;;;;;;;23.33;67.29;65903.31;5302362;26;20391;-71
2024/04/09 09:21:00;;;;;;;22.63;6.35;;;;;;;23.69;65.06;65913.34;5309274;26;20008;-71
2024/04/09 09:23:26;;;;;;;19.92;6.75;;;;;;;23.58;64.56;65936.06;5292264;26;20001;-70
2024/04/09 09:25:54;;;;;;;19.55;6.03;;;;;;;23.73;62.20;65939.25;5333227;26;20013;-71
2024/04/09 09:28:22;;;;;;;22.95;6.80;;;;;;;23.61;64.63;65924.03;5311103;26;19997;-71
2024/04/09 09:30:48;;;;;;;20.73;5.97;;;;;;;23.15;60.18;65808.03;5247566;27;20013;-70
2024/04/09 09:33:21;;;;;;;20.45;5.63;;;;;;;23.34;59.96;65840.38;5297682;26;20020;-71
2024/04/09 09:35:48;;;;;;;22.17;5.60;;;;;;;23.60;59.21;65898.84;5279224;27;20009;-70
2024/04/09 09:38:17;;;;;;;20.95;5.78;;;;;;;23.43;58.76;65912.06;5292582;26;20009;-71
2024/04/09 09:40:45;;;;;;;28.35;5.63;;;;;;;23.18;60.69;65840.81;5316569;26;20462;-71
2024/04/09 09:43:13;;;;;;;22.10;5.40;;;;;;;22.96;60.31;65800.81;5294303;26;20036;-69
2024/04/09 09:45:39;;;;;;;22.40;5.32;;;;;;;22.95;59.57;65797.00;5336100;26;20005;-70
2024/04/09 09:48:06;;;;;;;22.48;5.65;;;;;;;22.84;61.13;65795.16;5299364;26;20017;-71
2024/04/09 09:50:32;;;;;;;21.50;5.07;;;;;;;22.84;61.05;65819.16;5303851;26;20001;-70
2024/04/09 09:52:59;;;;;;;21.05;5.82;;;;;;;22.82;61.40;65785.44;5296025;26;20078;-69
2024/04/09 09:55:26;;;;;;;22.02;6.38;;;;;;;22.79;60.10;65768.09;5288685;26;20347;-71
2024/04/09 09:57:53;;;;;;;22.77;5.82;;;;;;;22.77;61.86;65752.47;5311712;26;20010;-71
2024/04/09 10:00:20;;;;;;;26.52;6.22;;;;;;;22.54;59.26;65689.50;5323581;26;20001;-71
2024/04/09 10:02:47;;;;;;;20.83;5.43;;;;;;;22.60;60.25;65744.91;5297237;26;20001;-71
2024/04/09 10:05:14;;;;;;;26.17;5.85;;;;;;;22.81;60.02;65754.38;5281174;26;20012;-70
2024/04/09 10:07:41;;;;;;;25.50;5.00;;;;;;;23.06;60.04;65800.44;5305824;26;20001;-71
2024/04/09 10:10:07;;;;;;;24.63;5.22;;;;;;;23.03;60.12;65774.13;5310235;26;20005;-70
2024/04/09 10:12:35;;;;;;;22.58;5.18;;;;;;;23.10;59.51;65821.00;5298370;27;20441;-70
2024/04/09 10:15:04;;;;;;;22.40;4.45;;;;;;;22.98;58.04;65816.44;5311032;26;20005;-70
2024/04/09 10:17:49;;;;;;;24.52;4.90;;;;;;;22.92;57.57;65774.34;5310006;26;20013;-71
2024/04/09 10:20:26;;;;;;;22.40;5.10;;;;;;;22.77;58.10;65768.47;5299350;26;20000;-71
2024/04/09 10:22:54;;;;;;;26.33;5.10;;;;;;;22.74;57.86;65751.72;5298924;26;20450;-71
2024/04/09 10:25:22;;;;;;;24.77;5.65;;;;;;;22.58;58.19;65752.72;5279557;26;20020;-70
2024/04/09 10:27:59;;;;;;;25.95;4.80;;;;;;;22.67;59.00;65773.66;5269005;27;20076;-71
2024/04/09 10:30:27;;;;;;;26.92;5.50;;;;;;;22.55;58.73;65755.19;5274486;27;20001;-71
2024/04/09 10:32:57;;;;;;;23.17;5.00;;;;;;;22.76;58.13;65738.00;5266819;26;20001;-71
2024/04/09 10:35:24;;;;;;;24.63;4.80;;;;;;;23.06;57.35;65806.34;5285488;26;20005;-71
2024/04/09 10:37:52;;;;;;;26.00;5.35;;;;;;;23.21;56.80;65778.06;5278793;26;20017;-71
2024/04/09 10:40:18;;;;;;;22.10;4.60;;;;;;;23.29;56.98;65853.34;5289287;26;20017;-71
2024/04/09 10:42:44;;;;;;;26.83;5.35;;;;;;;23.22;55.65;65835.28;5307850;26;20436;-71
2024/04/09 10:45:11;;;;;;;26.55;5.43;;;;;;;23.01;57.20;65806.50;5305679;26;20024;-71
2024/04/09 10:47:38;;;;;;;23.85;4.80;;;;;;;23.15;57.61;65813.94;5322066;26;20009;-71
2024/04/09 10:50:05;;;;;;;22.73;5.20;;;;;;;23.07;57.91;65796.25;5273017;26;20001;-71
2024/04/09 10:52:32;;;;;;;28.63;5.00;;;;;;;23.11;57.24;65820.03;5302201;26;20147;-71
2024/04/09 10:55:09;;;;;;;21.13;4.93;;;;;;;23.22;57.33;65856.63;5286801;27;20010;-72
2024/04/09 10:57:35;;;;;;;22.00;4.50;;;;;;;23.21;58.22;65842.13;5274037;27;20038;-71
2024/04/09 11:00:12;;;;;;;27.33;5.68;;;;;;;23.01;58.19;65809.19;5278985;26;20042;-71
2024/04/09 11:02:39;;;;;;;22.67;4.90;;;;;;;22.94;59.27;65787.88;5272412;27;20006;-71
2024/04/09 11:05:06;;;;;;;20.30;4.40;;;;;;;23.10;58.82;65789.56;5269247;26;20010;-72
2024/04/09 11:07:43;;;;;;;23.73;5.47;;;;;;;22.93;58.89;65781.38;5297474;27;20005;-72
2024/04/09 11:10:17;;;;;;;21.77;5.05;;;;;;;22.77;58.45;65766.38;5280446;26;20001;-72
2024/04/09 11:12:53;;;;;;;21.40;4.63;;;;;;;22.79;58.95;65770.75;5293419;26;20001;-72
2024/04/09 11:15:20;;;;;;;22.50;4.38;;;;;;;23.07;58.93;65809.59;5279820;26;20006;-71
2024/04/09 11:17:47;;;;;;;22.77;5.28;;;;;;;23.08;57.80;65861.41;5268691;27;19998;-72
2024/04/09 11:20:14;;;;;;;19.75;4.45;;;;;;;22.75;59.54;65774.19;5280567;26;20468;-72
2024/04/09 11:22:46;;;;;;;20.55;4.65;;;;;;;22.66;60.02;65702.59;5281283;27;20330;-71
2024/04/09 11:25:14;;;;;;;22.30;5.23;;;;;;;22.71;60.11;65780.31;5274919;26;20001;-72